Weather observations for the past three days for
Alva, Alva Regional Airport
Metric (Imperial)
Date Time (cdt) Wind (kph) Vis. (km) Weather Sky Cond. Temperature (ºC) Relative Humidity Wind Chill (°C) Heat Index (°C) Pressure Precipitation (cm)
Air Dwpt 6 hour altimeter (cm) sea level (mb) 1 hr 3 hr 6 hr
Max. Min.
06 00:35 NE 17 16.09 Overcast OVC050 11 4 62% 76.07 0.0
06 00:15 NE 20 16.09 Overcast OVC048 11 5 67% 76.07 0.0
05 23:55 NE 24 16.09 Overcast OVC047 11 4 62% 76.02 0.0
05 23:35 NE 15 16.09 Overcast OVC046 11 4 62% 76.05 0.0
05 23:15 NE 9 16.09 Overcast OVC046 11 3 58% 76.1 0.0
05 22:55 NE 11 16.09 Overcast FEW033 OVC045 11 3 58% 76.07 0.0
05 22:35 E 11 16.09 Overcast FEW033 OVC046 11 3 58% 76.05 0.0
05 22:15 E 13 16.09 Overcast OVC046 11 3 58% 76.02 0.0
05 21:55 E 13 16.09 Overcast OVC047 11 3 58% 76 0.0
05 21:35 E 13 16.09 Overcast OVC047 11 3 58% 76.02 0.0
05 21:15 NE 11 16.09 Overcast OVC047 11 3 58% 76 0.0
05 20:55 NE 9 16.09 Overcast OVC045 11 3 58% 76 0.0
05 20:35 E 15 16.09 Overcast OVC045 11 2 54% 75.95 0.0
05 20:15 NE 13 16.09 Overcast OVC044 11 2 54% 75.97 0.0
05 19:55 E 17 G 26 16.09 Overcast OVC043 12 2 51% 75.95 0.0
05 19:35 NE 28 16.09 Overcast OVC043 12 2 51% 75.92 0.0
05 19:15 NE 26 16.09 Overcast OVC043 12 3 54% 75.95 0.0
05 18:55 NE 26 G 41 16.09 Overcast SCT032 OVC043 12 4 58% 75.9 0.0
05 18:35 NE 26 G 39 16.09 Overcast BKN032 OVC043 12 4 58% 75.87 0.0
05 18:10 NE 24 G 35 16.09 Overcast FEW034 OVC044 12 4 58% 75.87 0.0
05 17:55 NE 26 G 37 16.09 Overcast BKN033 OVC045 12 4 58% 75.87 0.0
05 17:35 NE 28 16.09 Overcast BKN033 OVC043 13 4 55% 75.87 0.0
05 17:15 NE 26 16.09 Overcast BKN034 OVC042 13 5 59% 75.84 0.0
05 16:55 NE 26 16.09 Overcast OVC038 13 4 55% 75.82 0.0
05 16:35 NE 28 G 41 16.09 Overcast OVC040 14 4 51% 75.82 0.0
05 16:15 NE 31 G 44 16.09 Overcast OVC039 13 4 55% 75.82 0.0
05 15:55 NE 37 G 48 16.09 Overcast and Breezy OVC037 14 4 51% 75.82 0.0
05 15:35 NE 31 G 46 16.09 Overcast OVC036 13 4 55% 75.82 0.0
05 15:15 NE 31 G 43 16.09 Overcast OVC035 13 4 55% 75.82 0.0
05 14:55 NE 43 G 52 16.09 Overcast and Windy BKN035 OVC043 14 3 48% 75.82 0.0
05 14:35 NE 39 16.09 Overcast and Breezy BKN038 OVC043 14 3 48% 75.84 0.0
05 14:15 NE 33 G 46 16.09 Overcast and Breezy BKN036 OVC042 14 3 48% 75.82 0.0
05 13:55 NE 31 G 44 16.09 Overcast BKN037 OVC042 13 3 51% 75.84 0.0
05 13:35 NE 30 G 43 16.09 Overcast BKN036 OVC042 14 3 48% 75.84 0.0
05 13:15 NE 35 G 48 16.09 Overcast and Breezy OVC038 14 3 48% 75.84 0.0
05 12:55 NE 35 G 44 16.09 Overcast and Breezy OVC037 14 3 48% 75.82 0.0
05 12:35 NE 35 G 52 16.09 Overcast and Breezy BKN039 OVC046 15 3 45% 75.79 0.0
05 12:15 NE 41 G 56 16.09 Overcast and Breezy BKN041 OVC046 16 3 42% 75.77 0.0
05 11:55 NE 43 G 56 16.09 Overcast and Windy BKN042 OVC047 15 3 45% 75.74 0.0
05 11:35 NE 35 G 52 16.09 Overcast and Breezy OVC047 15 4 48% 75.72 0.0
05 11:15 NE 48 G 61 16.09 Overcast and Windy FEW040 OVC047 15 4 48% 75.72 0.0
05 10:55 NE 39 G 54 16.09 Overcast and Breezy OVC045 14 3 48% 75.72 0.0
05 10:35 NE 39 G 54 16.09 Overcast and Breezy BKN037 OVC045 14 3 48% 75.67 0.0
05 10:15 NE 43 16.09 Overcast and Windy FEW025 OVC034 14 3 48% 75.69 0.0
05 09:55 NE 33 G 59 16.09 Overcast and Breezy FEW025 OVC033 14 3 48% 75.67 0.0
05 09:35 NE 35 G 57 16.09 Overcast and Breezy OVC032 14 3 48% 75.62 0.0
05 09:15 NE 43 G 57 16.09 Overcast and Windy OVC030 14 3 48% 75.59 0.0
05 08:55 NE 41 G 56 16.09 Overcast and Breezy OVC030 14 3 48% 75.57 0.0
05 08:35 NE 33 G 52 16.09 Overcast and Breezy OVC030 14 3 48% 75.54 0.0
05 08:15 NE 41 G 59 16.09 Overcast and Breezy OVC029 14 2 44% 75.54 0.0
05 07:55 NE 46 16.09 Overcast and Windy OVC028 14 2 44% 75.49 0.0
05 07:35 NE 41 G 57 16.09 Overcast and Breezy OVC028 14 3 48% 75.44 0.0
05 07:15 NE 46 G 70 16.09 Overcast and Windy OVC028 14 3 48% 75.41 0.0
05 06:55 NE 59 G 78 16.09 Overcast and Windy OVC030 14 3 48% 75.36 0.0
05 06:35 NE 41 G 67 16.09 Overcast and Breezy OVC030 14 4 51% 75.39 0.0
05 06:15 NE 48 G 65 16.09 Overcast and Windy OVC027 15 7 59% 75.34 0.0
05 05:55 NE 54 G 65 16.09 Overcast and Windy OVC024 15 8 63% 75.26 0.0
05 05:35 NE 44 G 65 16.09 Overcast and Windy OVC021 15 10 72% 75.18 0.0
05 05:15 NE 44 G 61 16.09 Overcast and Windy OVC020 16 11 72% 75.16 0.0
05 04:55 NE 44 G 59 16.09 Overcast and Windy OVC020 17 12 73% 75.08 0.0
05 04:35 NE 44 G 56 16.09 Overcast and Windy OVC021 17 12 73% 75.06 0.0
05 04:15 NE 44 G 63 16.09 Overcast and Windy OVC021 18 12 68% 75.03 0.0
05 03:55 NE 39 G 56 16.09 Mostly Cloudy and Breezy BKN021 19 14 73% 75.03 0.0
05 03:35 NE 37 G 46 16.09 Fair and Breezy CLR 19 16 83% 75.01 0.0
05 03:15 NE 35 G 46 16.09 Fair and Breezy CLR 19 16 83% 74.98 0.0
05 02:55 NE 30 16.09 Fair CLR 19 17 88% 74.98 0.0
05 02:30 NE 26 16.09 Fair CLR 19 17 88% 74.96 0.0
05 02:15 NE 24 16.09 Fair CLR 19 17 88% 74.96 0.0
05 01:55 NE 19 16.09 Fair CLR 19 17 88% 74.93 0.0
05 01:35 NE 11 16.09 Fair CLR 19 17 88% 74.9 0.0
05 01:15 E 17 16.09 Fair CLR 19 17 88% 74.9 0.0
05 00:55 E 19 16.09 Fair CLR 20 17 83% 74.9 0.0
05 00:35 E 17 16.09 Fair CLR 20 17 83% 74.9 0.0
05 00:15 E 20 16.09 Fair CLR 21 17 78% 74.9 0.0
04 23:55 E 17 16.09 Fair CLR 21 17 78% 74.93 0.0
04 23:35 E 22 16.09 Fair CLR 21 17 78% 74.93 0.0
04 23:10 E 20 16.09 Fair CLR 22 17 73% 74.96 0.0
04 22:55 E 17 16.09 Fair CLR 22 17 73% 74.96 0.0
04 22:35 E 20 16.09 Fair CLR 23 16 65% 74.96 0.0
04 22:15 E 19 16.09 Fair CLR 24 16 61% 25 74.93 0.0
04 21:55 E 17 16.09 Fair CLR 24 16 61% 25 74.93 0.0
04 21:35 SE 26 G 35 16.09 Fair CLR 25 16 57% 26 74.9 0.0
04 21:15 SE 22 G 31 16.09 Fair CLR 26 15 51% 27 74.9 0.0
04 20:55 SE 22 16.09 Fair CLR 26 15 51% 27 74.9 0.0
04 20:35 SE 22 G 31 16.09 Fair CLR 27 14 45% 27 74.9 0.0
04 20:10 SE 24 16.09 Fair CLR 27 13 42% 27 74.9 0.0
04 19:55 SE 19 G 31 16.09 Fair CLR 28 13 40% 28 74.9 0.0
04 19:35 SE 20 G 30 16.09 Fair CLR 28 13 40% 28 74.9 0.0
04 19:15 SE 15 16.09 Fair CLR 29 12 35% 28 74.9 0.0
04 18:55 E 11 16.09 Fair CLR 29 13 37% 28 74.93 0.0
04 18:35 SE 11 16.09 Fair CLR 30 12 33% 29 74.93 0.0
04 18:15 SE 15 16.09 Fair CLR 31 11 29% 30 74.96 0.0
04 17:55 S 15 16.09 Fair CLR 31 10 27% 29 74.96 0.0
04 17:35 S 17 16.09 Fair CLR 31 10 27% 29 74.98 0.0
04 17:15 SE 15 16.09 Fair CLR 31 10 27% 29 75.01 0.0
04 16:55 S 15 16.09 Fair CLR 30 10 29% 29 75.03 0.0
04 16:35 S 19 16.09 Fair CLR 31 10 27% 29 75.03 0.0
04 16:15 S 19 16.09 Fair CLR 30 10 29% 29 75.06 0.0
04 15:55 S 13 G 26 16.09 Fair CLR 30 10 29% 29 75.08 0.0
04 15:35 S 15 G 26 16.09 Fair CLR 30 9 27% 29 75.11 0.0
04 15:15 S 15 G 28 9.66 Fair with Haze CLR 30 10 29% 29 75.13 0.0
04 14:55 SW 19 G 28 8.05 Fair with Haze CLR 29 9 29% 28 75.16 0.0
04 14:35 S 19 G 35 9.66 Fair with Haze CLR 29 10 31% 28 75.18 0.0
04 14:15 S 20 G 37 9.66 Fair with Haze CLR 30 10 29% 29 75.21 0.0
04 13:55 S 15 G 28 16.09 Fair CLR 29 10 31% 28 75.21 0.0
04 13:35 SW 24 16.09 Fair CLR 28 10 32% 27 75.23 0.0
04 13:15 S 17 G 31 16.09 Fair CLR 28 10 32% 27 75.26 0.0
04 12:55 SW 19 14.48 Fair CLR 28 10 32% 27 75.29 0.0
04 12:35 SW 13 G 28 16.09 Fair CLR 27 9 32% 27 75.31 0.0
04 12:15 S 15 G 28 16.09 Fair CLR 27 9 32% 27 75.31 0.0
04 11:55 SW 19 16.09 Fair CLR 27 9 32% 27 75.34 0.0
04 11:35 SW 19 G 30 16.09 Fair CLR 26 9 34% 26 75.31 0.0
04 11:15 SW 19 G 30 16.09 Fair CLR 26 9 34% 26 75.31 0.0
04 10:50 S 20 16.09 Fair CLR 25 9 36% 26 75.31 0.0
04 10:35 SW 20 G 33 16.09 Fair CLR 25 9 36% 26 75.34 0.0
04 10:15 SW 28 16.09 Fair CLR 24 9 39% 25 75.34 0.0
04 09:55 SW 26 G 37 16.09 Fair CLR 23 9 41% 75.36 0.0
04 09:35 SW 28 16.09 Fair CLR 22 9 44% 75.36 0.0
04 09:15 SW 31 16.09 Fair CLR 22 9 44% 75.36 0.0
04 08:55 SW 31 G 41 16.09 Fair CLR 21 9 46% 75.36 0.0
04 08:35 SW 30 G 43 16.09 Fair CLR 20 9 49% 75.36 0.0
04 08:15 SW 26 16.09 Fair CLR 20 9 49% 75.36 0.0
04 07:55 SW 26 16.09 Fair CLR 19 8 49% 75.34 0.0
04 07:35 SW 26 16.09 Fair CLR 17 8 56% 75.34 0.0
04 07:15 S 22 16.09 Fair CLR 16 8 59% 75.34 0.0
04 06:55 S 20 16.09 Fair CLR 16 8 59% 75.34 0.0
04 06:35 SW 19 16.09 Fair CLR 17 8 56% 75.34 0.0
04 06:15 SW 22 16.09 Fair CLR 17 8 56% 75.36 0.0
04 05:55 SW 22 16.09 Fair CLR 17 8 56% 75.36 0.0
04 05:35 SW 20 G 30 16.09 Fair CLR 18 8 52% 75.39 0.0
04 05:15 SW 22 G 31 16.09 Fair CLR 18 8 52% 75.39 0.0
04 04:55 SW 22 G 37 16.09 Fair CLR 19 8 49% 75.41 0.0
04 04:35 SW 24 G 37 16.09 Fair CLR 19 8 49% 75.44 0.0
04 04:10 SW 31 G 43 16.09 Fair CLR 19 8 49% 75.44 0.0
04 03:55 SW 26 G 37 16.09 Fair CLR 19 7 46% 75.44 0.0
04 03:35 SW 24 16.09 Fair CLR 19 7 46% 75.46 0.0
04 03:15 SW 24 16.09 Fair CLR 20 7 43% 75.46 0.0
04 02:55 SW 30 G 41 16.09 Fair CLR 20 7 43% 75.49 0.0
04 02:35 SW 31 G 43 16.09 Fair CLR 21 7 40% 75.51 0.0
04 02:15 SW 30 G 41 16.09 Fair CLR 21 7 40% 75.51 0.0
04 01:55 SW 28 G 41 16.09 Fair CLR 21 7 40% 75.54 0.0
04 01:35 SW 31 G 43 16.09 Fair CLR 21 7 40% 75.54 0.0
04 00:55 S 37 G 48 16.09 Fair and Breezy CLR 22 6 36% 75.57 0.0
04 00:35 S 37 G 48 16.09 Fair and Breezy CLR 22 6 36% 75.57 0.0
04 00:15 S 33 G 54 16.09 Fair and Breezy CLR 22 5 33% 75.57 0.0
03 23:55 S 30 G 43 16.09 Fair CLR 22 5 33% 75.57 0.0
03 23:35 S 30 G 41 16.09 Fair CLR 22 5 33% 75.59 0.0
03 23:15 S 24 14.48 Fair CLR 21 4 33% 75.59 0.0
03 22:55 S 24 6.44 Fair with Haze CLR 22 4 31% 75.62 0.0
03 22:35 S 24 G 33 16.09 Fair CLR 23 4 29% 75.62 0.0
03 22:10 S 28 16.09 Fair CLR 23 4 29% 75.59 0.0
03 21:55 S 24 16.09 Fair CLR 23 4 29% 75.59 0.0
03 21:35 S 20 14.48 Fair CLR 24 4 27% 25 75.59 0.0
03 21:15 S 24 14.48 Fair CLR 24 3 25% 25 75.59 0.0
03 20:55 S 22 14.48 Fair CLR 25 3 24% 25 75.59 0.0
03 20:35 S 26 16.09 Fair CLR 25 3 24% 25 75.59 0.0
03 20:15 S 24 G 35 14.48 Fair CLR 27 2 20% 26 75.59 0.0
03 19:55 S 24 G 33 16.09 Fair CLR 28 2 19% 27 75.59 0.0
03 19:35 SW 28 G 37 16.09 Fair CLR 28 2 19% 27 75.59 0.0
03 19:10 S 28 G 41 16.09 Fair CLR 29 2 18% 27 75.62 0.0
03 18:55 SW 28 G 39 16.09 Fair CLR 29 2 18% 27 75.62 0.0
03 18:35 SW 35 G 48 16.09 Fair and Breezy CLR 30 1 15% 28 75.64 0.0
03 18:15 SW 33 G 46 14.48 Fair and Breezy CLR 30 2 17% 28 75.64 0.0
03 17:55 SW 35 G 52 8.05 Fair with Haze and Breezy CLR 31 2 16% 29 75.67 0.0
03 17:35 SW 31 G 52 4.83 Fair with Haze CLR 30 2 17% 28 75.69 0.0
03 17:15 SW 37 G 52 12.87 Fair and Breezy CLR 31 1 15% 29 75.69 0.0
03 16:55 SW 35 G 46 16.09 Fair and Breezy CLR 30 2 17% 28 75.72 0.0
03 16:35 SW 41 16.09 Fair and Breezy CLR 31 1 15% 29 75.74 0.0
03 16:15 W 39 G 57 16.09 Fair and Breezy CLR 31 0 13% 29 75.77 0.0
03 15:50 SW 31 G 56 16.09 Fair CLR 31 0 13% 29 75.79 0.0
03 15:35 SW 39 G 52 16.09 Fair and Breezy CLR 31 1 15% 29 75.82 0.0
03 15:15 SW 35 G 52 16.09 Fair and Breezy CLR 32 0 13% 30 75.84 0.0
03 14:55 SW 39 16.09 Fair and Breezy CLR 31 1 15% 29 75.87 0.0
03 14:35 SW 37 G 59 16.09 Fair and Breezy CLR 31 1 15% 29 75.9 0.0
03 14:15 SW 30 G 48 16.09 Fair CLR 31 0 13% 29 75.92 0.0
03 13:55 SW 35 G 50 16.09 Fair and Breezy CLR 31 1 15% 29 75.97 0.0
03 13:35 SW 31 G 48 16.09 Fair CLR 30 0 14% 28 75.97 0.0
03 13:15 SW 41 G 54 16.09 Fair and Breezy CLR 31 1 15% 29 76.02 0.0
03 12:55 SW 35 G 46 16.09 Fair and Breezy CLR 30 0 14% 28 76.05 0.0
03 12:35 SW 39 16.09 Fair and Breezy CLR 30 0 14% 28 76.07 0.0
03 12:15 SW 28 G 39 16.09 Fair CLR 29 0 15% 27 76.1 0.0
03 11:55 SW 24 G 35 16.09 Fair CLR 28 3 20% 27 76.12 0.0
03 11:35 SW 19 G 31 16.09 Fair CLR 28 4 21% 27 76.15 0.0
03 11:15 W 24 G 33 16.09 Fair CLR 26 5 26% 26 76.17 0.0
03 10:55 W 26 G 37 16.09 Fair CLR 25 5 28% 25 76.17 0.0
03 10:35 W 31 16.09 Fair CLR 24 5 29% 25 76.17 0.0
03 10:15 W 26 16.09 Fair CLR 23 6 33% 76.2 0.0
03 09:55 W 24 16.09 Fair CLR 22 5 33% 76.2 0.0
03 09:30 W 26 16.09 Fair CLR 20 5 38% 76.2 0.0
03 09:15 W 24 16.09 Fair CLR 19 5 40% 76.2 0.0
03 08:55 W 17 16.09 Fair CLR 16 6 52% 76.2 0.0
03 08:35 SW 17 16.09 Fair CLR 14 7 63% 76.23 0.0
03 08:15 W 15 16.09 Fair CLR 13 7 67% 76.23 0.0
03 07:55 SW 11 16.09 Fair CLR 11 6 72% 76.23 0.0
03 07:35 SW 13 16.09 Fair CLR 10 6 76% 8 76.2 0.0
03 07:15 SW 15 16.09 Fair CLR 8 6 87% 6 76.17 0.0
03 06:50 S 17 9.66 Fair with Haze CLR 8 6 87% 6 76.15 0.0
03 06:35 S 19 4.83 Fair with Haze CLR 9 6 82% 7 76.15 0.0
03 06:15 S 17 6.44 Fair with Haze CLR 9 6 82% 7 76.15 0.0
03 05:55 S 19 12.87 Fair CLR 10 6 76% 8 76.17 0.0
03 05:35 S 19 16.09 Fair CLR 10 6 76% 8 76.17 0.0
03 05:15 S 19 16.09 Fair CLR 10 5 71% 8 76.2 0.0
03 04:55 S 17 16.09 Fair CLR 11 5 67% 76.2 0.0
03 04:35 S 19 16.09 Fair CLR 11 5 67% 76.23 0.0
03 04:15 S 17 16.09 Fair CLR 11 5 67% 76.25 0.0
03 03:55 S 17 16.09 Fair CLR 11 5 67% 76.25 0.0
03 03:30 S 17 16.09 Fair CLR 11 5 67% 76.28 0.0
03 03:15 S 17 16.09 Fair CLR 11 5 67% 76.28 0.0
03 02:55 S 15 16.09 Fair CLR 10 5 71% 8 76.3 0.0
03 02:35 S 17 16.09 Fair CLR 11 5 67% 76.3 0.0
03 02:15 S 19 16.09 Fair CLR 11 5 67% 76.33 0.0
03 01:55 S 19 16.09 Fair CLR 11 5 67% 76.33 0.0
03 01:35 S 17 16.09 Fair CLR 11 6 72% 76.35 0.0
03 01:15 S 17 16.09 Fair CLR 10 5 71% 8 76.35 0.0
03 00:55 S 17 16.09 A Few Clouds FEW024 10 5 71% 8 76.35 0.0
Date Time (cdt) Wind (kph) Vis. (km) Weather Sky Cond. Air Dwpt Max. Min. Relative Humidity Wind Chill (°C) Heat Index (°C) altimeter (cm) sea level (mb) 1 hr 3 hr 6 hr
6 hour
Temperature (ºC) Pressure Precipitation (cm)